Time;durP1;ratioP1;P1;durP2;ratioP2;P2;SDS_P1;SDS_P2;PMS_P1;PMS_P2;Temp;Humidity;BMP_temperature;BMP_pressure;BME280_temperature;BME280_humidity;BME280_pressure;Samples;Min_cycle;Max_cycle;Signal;HPM_P1;HPM_P2
2021/09/07 00:01:55;;;;;;;22.30;17.83;;;22.40;1.00;;;;;;4994102;28;20206;-79
2021/09/07 00:04:28;;;;;;;21.43;18.03;;;22.40;1.00;;;;;;4994777;28;20175;-80
2021/09/07 00:06:55;;;;;;;20.27;16.83;;;22.40;1.00;;;;;;4993444;28;20174;-79
2021/09/07 00:09:20;;;;;;;18.17;16.17;;;22.40;1.00;;;;;;4995104;28;20171;-80
2021/09/07 00:11:46;;;;;;;21.10;16.97;;;22.30;1.00;;;;;;4995189;28;20321;-80
2021/09/07 00:14:12;;;;;;;19.93;17.07;;;22.20;1.00;;;;;;4995005;28;20648;-80
2021/09/07 00:16:37;;;;;;;22.03;17.80;;;22.00;1.00;;;;;;4994097;28;20749;-80
2021/09/07 00:19:03;;;;;;;22.70;17.33;;;22.00;1.00;;;;;;4994966;28;20218;-79
2021/09/07 00:21:28;;;;;;;24.20;17.07;;;22.10;1.00;;;;;;4994150;28;20190;-79
2021/09/07 00:23:54;;;;;;;21.33;16.90;;;22.00;1.00;;;;;;4994277;28;20199;-80
2021/09/07 00:26:20;;;;;;;20.70;17.37;;;21.90;1.00;;;;;;4994472;28;20537;-80
2021/09/07 00:28:45;;;;;;;22.50;16.70;;;21.90;1.00;;;;;;4993603;28;20186;-80
2021/09/07 00:31:11;;;;;;;21.00;17.50;;;21.90;1.00;;;;;;4993848;28;20269;-80
2021/09/07 00:33:37;;;;;;;22.93;17.43;;;22.00;1.00;;;;;;4994838;28;20735;-80
2021/09/07 00:36:02;;;;;;;19.03;16.47;;;21.90;1.00;;;;;;4993517;28;20190;-80
2021/09/07 00:38:29;;;;;;;24.70;19.07;;;21.80;1.00;;;;;;4994405;28;20225;-80
2021/09/07 00:40:55;;;;;;;22.30;17.67;;;21.70;1.00;;;;;;4994707;28;20174;-80
2021/09/07 00:43:21;;;;;;;22.37;18.03;;;21.60;1.00;;;;;;4993642;28;20270;-80
2021/09/07 00:45:46;;;;;;;20.90;18.27;;;21.50;1.00;;;;;;4993105;28;20181;-80
2021/09/07 00:48:12;;;;;;;23.73;19.30;;;21.30;1.00;;;;;;4994801;28;20207;-80
2021/09/07 00:50:37;;;;;;;24.23;19.13;;;21.10;5.90;;;;;;4995025;28;20177;-80
2021/09/07 00:53:04;;;;;;;23.07;19.40;;;21.10;8.20;;;;;;4994585;28;20712;-80
2021/09/07 00:55:31;;;;;;;23.90;18.90;;;21.10;8.70;;;;;;4993904;28;20209;-79
2021/09/07 00:58:01;;;;;;;24.57;19.13;;;21.10;8.30;;;;;;4994439;28;20629;-80
2021/09/07 01:00:27;;;;;;;24.63;18.87;;;20.90;15.10;;;;;;4994635;28;20217;-79
2021/09/07 01:02:52;;;;;;;24.70;19.47;;;21.00;18.40;;;;;;4994214;28;20680;-81
2021/09/07 01:05:18;;;;;;;26.10;18.80;;;20.80;20.90;;;;;;4994511;28;20185;-80
2021/09/07 01:07:44;;;;;;;23.70;19.37;;;20.60;24.00;;;;;;4994415;28;20173;-79
2021/09/07 01:10:16;;;;;;;22.40;19.03;;;20.60;27.20;;;;;;4997722;28;20555;-82
2021/09/07 01:12:41;;;;;;;27.53;19.43;;;20.40;31.00;;;;;;4998310;28;20165;-82
2021/09/07 01:15:08;;;;;;;25.47;19.77;;;20.40;29.70;;;;;;4998574;28;20203;-82
2021/09/07 01:17:34;;;;;;;25.70;20.50;;;20.30;32.90;;;;;;4998456;28;20170;-84
2021/09/07 01:20:00;;;;;;;23.60;18.90;;;20.20;34.80;;;;;;4996956;28;20251;-82
2021/09/07 01:22:25;;;;;;;24.77;19.67;;;20.20;37.40;;;;;;4998354;28;20173;-84
2021/09/07 01:24:52;;;;;;;27.27;19.63;;;20.20;37.90;;;;;;4997954;28;20613;-81
2021/09/07 01:27:20;;;;;;;26.63;20.03;;;20.10;40.10;;;;;;4997265;28;20187;-82
2021/09/07 01:29:48;;;;;;;24.53;19.73;;;20.10;41.10;;;;;;4997638;28;20192;-82
2021/09/07 01:32:14;;;;;;;24.27;19.83;;;19.90;44.20;;;;;;4996262;28;20170;-82
2021/09/07 01:34:40;;;;;;;24.57;19.20;;;19.70;49.40;;;;;;4997738;28;20642;-82
2021/09/07 01:37:06;;;;;;;22.97;20.07;;;19.70;50.30;;;;;;4997589;28;20199;-82
2021/09/07 01:39:32;;;;;;;24.50;19.77;;;19.90;49.90;;;;;;4998206;28;20211;-82
2021/09/07 01:41:59;;;;;;;23.07;18.37;;;19.70;52.80;;;;;;4997186;28;20561;-81
2021/09/07 01:44:25;;;;;;;25.10;19.70;;;19.70;52.30;;;;;;4996225;28;20196;-82
2021/09/07 01:46:51;;;;;;;26.57;20.63;;;19.70;53.20;;;;;;4998106;28;20267;-84
2021/09/07 01:49:19;;;;;;;25.40;20.30;;;19.70;53.50;;;;;;4998407;28;20263;-82
2021/09/07 01:51:46;;;;;;;24.00;19.47;;;19.90;50.90;;;;;;4998988;28;20176;-82
2021/09/07 01:54:13;;;;;;;24.77;19.37;;;19.90;51.20;;;;;;5000479;28;20192;-82
2021/09/07 01:56:40;;;;;;;25.23;20.97;;;19.90;49.40;;;;;;5001170;28;20640;-83
2021/09/07 01:59:07;;;;;;;24.93;19.03;;;20.00;49.30;;;;;;5002926;28;20246;-83
2021/09/07 02:01:33;;;;;;;27.53;20.57;;;19.70;50.50;;;;;;4999518;28;20174;-82
2021/09/07 02:03:58;;;;;;;24.67;20.50;;;19.50;54.80;;;;;;4998269;28;20168;-82
2021/09/07 02:06:25;;;;;;;24.77;19.20;;;19.40;57.80;;;;;;4996789;28;20183;-82
2021/09/07 02:08:51;;;;;;;25.50;19.70;;;19.40;58.90;;;;;;4995946;28;20191;-83
2021/09/07 02:11:17;;;;;;;24.57;20.03;;;19.40;60.10;;;;;;4996671;28;20176;-82
2021/09/07 02:13:43;;;;;;;24.20;20.33;;;19.60;58.70;;;;;;4996466;28;20564;-81
2021/09/07 02:16:08;;;;;;;27.17;21.40;;;19.60;57.60;;;;;;4995737;28;20177;-82
2021/09/07 02:18:34;;;;;;;26.23;20.13;;;19.70;57.00;;;;;;4996924;28;20263;-82
2021/09/07 02:21:00;;;;;;;26.73;20.57;;;19.70;55.30;;;;;;4996090;28;20188;-83
2021/09/07 02:23:25;;;;;;;28.27;20.73;;;19.70;57.60;;;;;;4996246;28;20169;-82
2021/09/07 02:25:51;;;;;;;31.00;21.57;;;19.60;58.40;;;;;;4997377;28;20251;-82
2021/09/07 02:28:16;;;;;;;26.53;21.07;;;19.60;58.80;;;;;;4995362;28;20656;-82
2021/09/07 02:30:42;;;;;;;26.70;21.77;;;19.40;60.80;;;;;;4995435;28;20182;-82
2021/09/07 02:33:08;;;;;;;29.70;21.87;;;19.40;64.70;;;;;;4997026;28;20174;-81
2021/09/07 02:35:34;;;;;;;28.57;21.73;;;19.30;66.00;;;;;;4996614;28;20182;-81
2021/09/07 02:38:02;;;;;;;25.77;21.13;;;19.30;66.40;;;;;;4996304;28;20166;-82
2021/09/07 02:40:27;;;;;;;27.03;21.43;;;19.20;66.30;;;;;;4996888;28;20265;-82
2021/09/07 02:42:53;;;;;;;28.13;21.63;;;19.20;68.60;;;;;;4996175;28;20533;-82
2021/09/07 02:45:19;;;;;;;31.30;21.67;;;19.20;70.00;;;;;;4996279;28;20178;-82
2021/09/07 02:47:44;;;;;;;27.30;21.83;;;19.20;67.80;;;;;;4996027;28;20674;-82
2021/09/07 02:50:13;;;;;;;28.13;21.40;;;19.20;69.70;;;;;;4994548;28;20225;-82
2021/09/07 02:52:39;;;;;;;27.67;20.97;;;19.10;70.30;;;;;;4995945;28;20254;-84
2021/09/07 02:55:06;;;;;;;27.90;21.43;;;19.20;70.10;;;;;;4994968;28;20326;-84
2021/09/07 02:57:32;;;;;;;29.23;21.70;;;18.90;73.40;;;;;;4995467;28;20195;-82
2021/09/07 02:59:57;;;;;;;31.83;23.07;;;18.90;73.90;;;;;;4994599;28;20219;-83
2021/09/07 03:02:24;;;;;;;27.73;21.53;;;18.80;76.20;;;;;;4995336;28;20250;-84
2021/09/07 03:04:50;;;;;;;30.67;21.00;;;18.70;77.60;;;;;;4995914;28;20167;-82
2021/09/07 03:07:16;;;;;;;26.00;21.37;;;18.70;79.50;;;;;;4995940;28;20498;-84
2021/09/07 03:09:42;;;;;;;27.93;21.90;;;18.50;80.60;;;;;;4994891;28;20174;-83
2021/09/07 03:12:08;;;;;;;26.97;21.27;;;18.60;79.80;;;;;;4995946;28;20657;-84
2021/09/07 03:14:33;;;;;;;29.30;21.70;;;18.50;81.30;;;;;;4996331;28;20531;-84
2021/09/07 03:16:59;;;;;;;26.90;21.30;;;18.70;80.30;;;;;;4995740;28;20218;-83
2021/09/07 03:19:25;;;;;;;29.70;22.73;;;18.70;77.20;;;;;;4995805;28;20219;-84
2021/09/07 03:21:50;;;;;;;27.30;21.97;;;18.70;76.80;;;;;;4994538;28;20182;-84
2021/09/07 03:24:16;;;;;;;29.03;22.43;;;18.80;76.90;;;;;;4995743;28;20650;-84
2021/09/07 03:26:42;;;;;;;28.70;22.13;;;19.00;75.60;;;;;;4994951;28;20180;-84
2021/09/07 03:29:09;;;;;;;30.07;21.87;;;18.90;73.60;;;;;;4994195;28;20349;-83
2021/09/07 03:31:35;;;;;;;26.87;22.07;;;19.00;72.00;;;;;;4993786;28;20178;-83
2021/09/07 03:34:01;;;;;;;28.70;22.53;;;19.10;71.30;;;;;;4994829;28;20168;-84
2021/09/07 03:36:27;;;;;;;28.30;21.37;;;19.00;70.90;;;;;;4995068;28;20167;-83
2021/09/07 03:38:53;;;;;;;27.30;21.47;;;18.90;71.00;;;;;;4995275;28;20171;-83
2021/09/07 03:41:18;;;;;;;29.93;23.37;;;18.90;71.50;;;;;;4994637;28;20175;-84
2021/09/07 03:43:44;;;;;;;28.80;23.07;;;19.00;71.10;;;;;;4995154;28;20202;-84
2021/09/07 03:46:10;;;;;;;30.23;22.67;;;19.00;71.80;;;;;;4993264;28;20175;-83
2021/09/07 03:48:35;;;;;;;27.77;23.13;;;18.90;73.60;;;;;;4995433;28;20245;-82
2021/09/07 03:51:01;;;;;;;29.87;22.03;;;18.80;74.10;;;;;;4998271;28;20183;-84
2021/09/07 03:53:29;;;;;;;32.37;22.97;;;18.70;78.10;;;;;;4995552;28;20175;-83
2021/09/07 03:55:55;;;;;;;29.17;22.70;;;18.60;79.70;;;;;;4993020;28;20185;-83
2021/09/07 03:58:20;;;;;;;30.93;21.90;;;18.40;82.50;;;;;;4994301;28;20164;-83
2021/09/07 04:00:46;;;;;;;32.20;22.67;;;18.40;83.70;;;;;;4993153;28;20730;-83
2021/09/07 04:03:16;;;;;;;29.00;22.77;;;18.40;85.10;;;;;;4994435;28;20229;-83
2021/09/07 04:05:42;;;;;;;30.93;22.60;;;18.20;86.40;;;;;;4993665;28;20254;-82
2021/09/07 04:08:08;;;;;;;27.90;22.00;;;18.10;86.60;;;;;;4992529;28;20271;-84
2021/09/07 04:10:34;;;;;;;27.40;21.77;;;18.20;87.20;;;;;;4992880;28;20179;-84
2021/09/07 04:13:00;;;;;;;30.47;21.70;;;18.00;88.70;;;;;;4994742;28;20171;-84
2021/09/07 04:15:25;;;;;;;34.07;22.27;;;18.00;88.30;;;;;;4993997;28;20167;-83
2021/09/07 04:17:51;;;;;;;33.67;23.80;;;17.90;88.70;;;;;;4993533;28;20187;-84
2021/09/07 04:20:16;;;;;;;29.90;22.37;;;18.00;90.10;;;;;;4994443;28;20219;-83
2021/09/07 04:22:42;;;;;;;30.07;22.57;;;17.80;90.30;;;;;;4992782;28;20182;-82
2021/09/07 04:25:08;;;;;;;31.20;23.67;;;17.80;90.70;;;;;;4992924;28;20175;-84
2021/09/07 04:27:34;;;;;;;34.17;24.60;;;17.80;91.10;;;;;;4994452;28;20655;-82
2021/09/07 04:29:59;;;;;;;33.67;23.40;;;17.80;91.50;;;;;;4994846;28;20186;-82
2021/09/07 04:32:25;;;;;;;44.87;24.23;;;17.70;91.40;;;;;;4993761;28;20186;-83
2021/09/07 04:34:51;;;;;;;37.67;25.07;;;17.60;91.70;;;;;;4996579;28;20654;-82
2021/09/07 04:37:17;;;;;;;33.90;24.37;;;17.60;92.40;;;;;;5018052;28;20163;-83
2021/09/07 04:39:49;;;;;;;46.03;24.77;;;17.60;92.20;;;;;;5012756;28;20221;-82
2021/09/07 04:42:15;;;;;;;34.93;23.47;;;17.50;92.70;;;;;;5016736;28;20265;-82
2021/09/07 04:44:40;;;;;;;37.00;25.07;;;17.50;92.60;;;;;;5024118;28;20189;-84
2021/09/07 04:47:06;;;;;;;38.67;23.07;;;17.40;92.80;;;;;;5024706;28;20177;-84
2021/09/07 04:49:32;;;;;;;33.43;23.77;;;17.40;93.40;;;;;;5022977;28;20179;-84
2021/09/07 04:51:57;;;;;;;34.93;24.20;;;17.50;93.30;;;;;;5005934;28;20182;-83
2021/09/07 04:54:25;;;;;;;31.80;22.00;;;17.60;93.20;;;;;;5006485;28;20225;-85
2021/09/07 04:57:00;;;;;;;41.57;23.93;;;17.50;91.90;;;;;;5005665;28;20191;-83
2021/09/07 04:59:26;;;;;;;39.43;23.67;;;17.40;92.80;;;;;;5000886;28;20206;-84
2021/09/07 05:02:16;;;;;;;35.33;23.07;;;17.30;93.10;;;;;;5001245;28;20171;-84
2021/09/07 05:04:42;;;;;;;36.07;24.53;;;17.30;93.30;;;;;;5004156;28;20167;-84
2021/09/07 05:07:08;;;;;;;36.63;24.13;;;17.40;92.60;;;;;;5001962;28;20738;-84
2021/09/07 05:09:34;;;;;;;40.20;25.27;;;17.40;92.10;;;;;;5001679;28;20201;-82
2021/09/07 05:11:59;;;;;;;34.63;24.13;;;17.40;92.40;;;;;;5020544;28;20178;-84
2021/09/07 05:14:25;;;;;;;37.10;24.87;;;17.60;92.20;;;;;;5021704;28;20171;-84
2021/09/07 05:16:51;;;;;;;36.93;25.00;;;17.50;91.40;;;;;;5021285;28;20265;-84
2021/09/07 05:19:16;;;;;;;35.63;25.37;;;17.60;91.40;;;;;;5035523;28;20205;-85
2021/09/07 05:21:43;;;;;;;41.97;24.03;;;17.70;91.00;;;;;;5006963;28;20183;-84
2021/09/07 05:24:14;;;;;;;36.63;24.23;;;17.60;89.80;;;;;;5020609;28;20646;-84
2021/09/07 05:26:40;;;;;;;42.27;25.43;;;17.50;91.00;;;;;;5020910;28;20176;-84
2021/09/07 05:29:09;;;;;;;44.17;24.83;;;17.60;91.20;;;;;;5021851;28;20189;-84
2021/09/07 05:31:35;;;;;;;39.90;24.90;;;17.60;91.10;;;;;;5020257;28;20248;-84
2021/09/07 05:34:00;;;;;;;42.53;24.60;;;17.60;90.90;;;;;;5021921;28;20626;-83
2021/09/07 05:36:26;;;;;;;39.63;25.30;;;17.60;91.30;;;;;;5030150;28;20229;-83
2021/09/07 05:38:52;;;;;;;47.47;25.07;;;17.80;91.10;;;;;;5035910;28;20216;-82
2021/09/07 05:41:18;;;;;;;42.60;25.00;;;17.80;90.30;;;;;;5038117;28;20180;-83
2021/09/07 05:43:43;;;;;;;43.80;24.20;;;17.90;89.30;;;;;;5037283;28;20154;-83
2021/09/07 05:46:10;;;;;;;40.63;25.20;;;17.90;87.80;;;;;;5025035;28;20498;-85
2021/09/07 05:48:38;;;;;;;36.30;23.97;;;17.90;86.70;;;;;;5021112;28;20178;-83
2021/09/07 05:51:04;;;;;;;41.80;25.77;;;17.80;89.30;;;;;;5020976;28;20174;-87
2021/09/07 05:53:30;;;;;;;50.47;25.13;;;18.10;88.90;;;;;;5016468;28;20254;-84
2021/09/07 05:55:55;;;;;;;40.93;25.93;;;18.00;86.20;;;;;;5016229;28;20170;-82
2021/09/07 05:58:21;;;;;;;49.47;26.43;;;18.00;86.00;;;;;;5015390;28;20665;-84
2021/09/07 06:00:47;;;;;;;47.27;25.73;;;18.10;84.80;;;;;;5013906;28;20198;-84
2021/09/07 06:03:12;;;;;;;42.60;25.37;;;18.20;83.40;;;;;;5004684;28;20639;-83
2021/09/07 06:05:38;;;;;;;41.23;25.53;;;18.20;81.40;;;;;;4998605;28;20252;-84
2021/09/07 06:08:04;;;;;;;46.83;27.30;;;18.30;80.00;;;;;;5002045;28;20186;-84
2021/09/07 06:10:30;;;;;;;49.50;26.77;;;18.40;78.30;;;;;;5000250;28;20178;-84
2021/09/07 06:12:56;;;;;;;39.90;26.20;;;18.50;77.20;;;;;;5016399;28;20173;-84
2021/09/07 06:15:22;;;;;;;43.63;25.47;;;18.60;76.70;;;;;;5010455;28;20174;-83
2021/09/07 06:17:47;;;;;;;42.90;26.93;;;18.60;75.50;;;;;;5006219;28;20194;-84
2021/09/07 06:20:13;;;;;;;49.27;27.50;;;18.70;73.50;;;;;;5016901;28;20285;-84
2021/09/07 06:22:39;;;;;;;46.83;26.10;;;18.60;72.10;;;;;;5015984;28;20203;-84
2021/09/07 06:25:06;;;;;;;45.73;27.27;;;18.70;71.90;;;;;;5017797;28;20177;-84
2021/09/07 06:27:32;;;;;;;42.73;26.03;;;18.70;70.60;;;;;;5015900;28;20185;-83
2021/09/07 06:29:57;;;;;;;40.37;27.00;;;18.70;71.00;;;;;;5014096;28;20193;-83
2021/09/07 06:32:23;;;;;;;39.17;26.37;;;18.70;71.00;;;;;;5014906;28;20272;-83
2021/09/07 06:34:50;;;;;;;44.07;26.77;;;18.80;71.10;;;;;;5014967;28;20645;-83
2021/09/07 06:37:15;;;;;;;42.43;26.17;;;18.90;69.20;;;;;;5016847;28;20289;-81
2021/09/07 06:39:41;;;;;;;45.40;27.53;;;18.70;70.00;;;;;;5015848;28;20238;-83
2021/09/07 06:42:07;;;;;;;45.90;26.27;;;18.90;69.70;;;;;;5016740;28;20538;-82
2021/09/07 06:44:33;;;;;;;45.23;27.23;;;19.00;67.60;;;;;;5016466;28;20167;-84
2021/09/07 06:46:58;;;;;;;47.17;28.33;;;19.10;65.90;;;;;;5015502;28;20645;-83
2021/09/07 06:49:24;;;;;;;42.97;27.37;;;19.20;63.30;;;;;;5016112;28;20186;-84
2021/09/07 06:51:50;;;;;;;43.67;27.03;;;19.30;61.40;;;;;;5017600;28;20174;-83
2021/09/07 06:54:15;;;;;;;42.47;27.53;;;19.40;60.00;;;;;;5016323;28;20232;-83
2021/09/07 06:56:41;;;;;;;46.87;27.20;;;19.50;58.10;;;;;;5017752;28;20534;-83
2021/09/07 06:59:06;;;;;;;54.17;29.03;;;19.70;54.40;;;;;;5015262;28;20663;-82
2021/09/07 07:01:32;;;;;;;45.40;28.33;;;19.90;50.00;;;;;;5016242;28;20179;-82
2021/09/07 07:03:58;;;;;;;44.87;27.10;;;20.00;45.60;;;;;;5016109;28;20219;-82
2021/09/07 07:06:24;;;;;;;45.03;27.83;;;20.10;43.50;;;;;;5014374;28;20180;-82
2021/09/07 07:08:51;;;;;;;40.87;27.43;;;20.20;41.90;;;;;;5015020;28;20184;-82
2021/09/07 07:11:16;;;;;;;43.80;27.33;;;20.40;38.70;;;;;;5017514;28;20228;-83
2021/09/07 07:13:42;;;;;;;41.60;28.77;;;20.70;32.50;;;;;;5015852;28;20218;-82
2021/09/07 07:16:08;;;;;;;44.57;27.50;;;20.90;25.90;;;;;;5014827;28;20182;-83
2021/09/07 07:18:33;;;;;;;46.17;28.80;;;21.00;18.30;;;;;;5016105;28;20198;-82
2021/09/07 07:21:00;;;;;;;43.00;27.17;;;21.10;15.40;;;;;;5015145;28;20227;-82
2021/09/07 07:23:26;;;;;;;44.40;27.97;;;21.10;15.50;;;;;;5015128;28;20174;-82
2021/09/07 07:25:51;;;;;;;46.53;28.73;;;21.10;13.70;;;;;;5016934;28;20250;-81
2021/09/07 07:28:17;;;;;;;45.03;26.90;;;21.20;8.00;;;;;;5015363;28;20239;-82
2021/09/07 07:30:43;;;;;;;43.37;26.40;;;21.40;6.30;;;;;;5014263;28;20182;-82
2021/09/07 07:33:09;;;;;;;39.37;25.90;;;21.60;1.00;;;;;;5013990;28;20182;-83
2021/09/07 07:35:36;;;;;;;40.30;26.37;;;21.70;1.00;;;;;;5015141;28;20174;-83
2021/09/07 07:38:01;;;;;;;36.87;24.97;;;22.00;1.00;;;;;;5017140;28;20171;-83
2021/09/07 07:40:27;;;;;;;41.50;25.33;;;22.00;1.00;;;;;;5015987;28;20633;-83
2021/09/07 07:42:53;;;;;;;33.77;24.43;;;22.20;1.00;;;;;;5016284;28;20171;-83
2021/09/07 07:45:18;;;;;;;32.93;23.47;;;22.30;1.00;;;;;;5016080;28;20253;-82
2021/09/07 07:47:44;;;;;;;36.07;23.10;;;22.60;1.00;;;;;;5016042;28;20182;-83
2021/09/07 07:50:11;;;;;;;34.20;22.33;;;22.70;1.00;;;;;;5016927;28;20183;-83
2021/09/07 07:52:36;;;;;;;30.80;21.40;;;22.90;1.00;;;;;;5017165;28;20177;-83
2021/09/07 07:55:02;;;;;;;30.60;21.47;;;23.10;1.00;;;;;;5016780;28;20234;-83
2021/09/07 07:57:28;;;;;;;27.70;20.27;;;22.90;1.00;;;;;;5020628;28;20186;-81
2021/09/07 07:59:54;;;;;;;27.87;20.43;;;22.80;1.00;;;;;;5019950;28;20218;-82
2021/09/07 08:02:19;;;;;;;37.93;21.33;;;22.70;1.00;;;;;;5016049;28;20183;-81
2021/09/07 08:04:45;;;;;;;30.37;20.33;;;22.80;1.00;;;;;;5016329;28;20255;-82
2021/09/07 08:07:10;;;;;;;27.33;20.33;;;22.90;1.00;;;;;;5033805;28;20249;-84
2021/09/07 08:09:36;;;;;;;27.43;20.17;;;23.10;1.00;;;;;;5025904;28;20222;-81
2021/09/07 08:12:02;;;;;;;30.43;20.20;;;23.20;1.00;;;;;;5021822;28;20168;-82
2021/09/07 08:14:31;;;;;;;28.20;20.40;;;23.20;99.90;;;;;;5015659;28;20177;-84
2021/09/07 08:16:56;;;;;;;27.27;19.63;;;23.40;99.90;;;;;;5014760;28;20211;-81
2021/09/07 08:19:22;;;;;;;32.53;20.97;;;23.70;99.90;;;;;;5014280;28;20248;-82
2021/09/07 08:21:47;;;;;;;28.73;20.20;;;23.70;1.00;;;;;;5014792;28;20275;-83
2021/09/07 08:24:13;;;;;;;28.57;20.57;;;23.70;1.00;;;;;;5016628;28;20164;-81
2021/09/07 08:26:39;;;;;;;27.57;21.07;;;23.80;1.00;;;;;;5033483;28;20234;-81
2021/09/07 08:29:04;;;;;;;27.83;20.73;;;24.00;99.90;;;;;;5032159;28;20509;-82
2021/09/07 08:31:30;;;;;;;28.90;19.30;;;24.20;99.90;;;;;;5021731;28;20192;-84
2021/09/07 08:33:56;;;;;;;26.57;19.47;;;24.30;99.90;;;;;;5019300;28;20166;-84
2021/09/07 08:36:24;;;;;;;22.60;18.10;;;24.50;99.90;;;;;;5016122;28;20188;-83
2021/09/07 08:38:52;;;;;;;22.10;16.83;;;24.70;1.00;;;;;;5016594;28;20161;-83
2021/09/07 08:41:22;;;;;;;25.90;18.23;;;24.90;99.90;;;;;;5014357;28;20522;-83
2021/09/07 08:43:52;;;;;;;26.30;18.13;;;24.90;99.90;;;;;;5015819;28;20158;-84
2021/09/07 08:46:18;;;;;;;24.90;16.53;;;24.80;1.00;;;;;;5016504;28;20169;-83
2021/09/07 08:48:45;;;;;;;21.60;15.90;;;24.80;99.90;;;;;;5016264;28;20611;-83
2021/09/07 08:51:11;;;;;;;20.60;15.17;;;24.80;1.00;;;;;;5014841;28;20182;-81
2021/09/07 08:53:38;;;;;;;20.07;15.67;;;24.60;6.00;;;;;;5014692;28;20200;-84
2021/09/07 08:56:09;;;;;;;21.60;15.40;;;24.70;99.90;;;;;;5016204;28;20189;-82
2021/09/07 08:58:35;;;;;;;20.27;15.27;;;24.70;1.00;;;;;;5016871;28;20174;-83
2021/09/07 09:01:14;;;;;;;22.63;15.30;;;25.00;1.00;;;;;;5016222;28;20221;-82
2021/09/07 09:03:46;;;;;;;23.23;14.73;;;25.10;64.60;;;;;;5017211;28;20277;-83
2021/09/07 09:06:25;;;;;;;19.53;14.20;;;25.20;1.00;;;;;;5016290;28;20174;-83
2021/09/07 09:09:07;;;;;;;17.53;12.87;;;25.10;99.90;;;;;;5016760;28;20221;-81
2021/09/07 09:11:50;;;;;;;23.03;12.80;;;25.30;1.00;;;;;;5015785;28;20210;-81
2021/09/07 09:14:39;;;;;;;16.60;12.20;;;25.40;99.90;;;;;;5014796;28;20231;-83
2021/09/07 09:17:17;;;;;;;20.43;12.40;;;25.60;53.50;;;;;;5015937;28;20166;-82
2021/09/07 09:19:57;;;;;;;15.77;11.57;;;25.80;1.00;;;;;;5017172;28;20215;-82
2021/09/07 09:22:39;;;;;;;15.67;11.30;;;25.60;99.90;;;;;;5019252;28;20166;-82
2021/09/07 09:25:27;;;;;;;15.13;11.90;;;25.40;99.90;;;;;;5018447;28;20166;-82
2021/09/07 09:27:56;;;;;;;15.07;12.07;;;25.30;99.90;;;;;;5015579;28;20179;-81
2021/09/07 09:30:30;;;;;;;12.90;11.10;;;25.30;99.90;;;;;;5022628;28;20643;-85
2021/09/07 09:32:58;;;;;;;15.87;11.40;;;25.40;99.90;;;;;;5022026;28;20166;-83
2021/09/07 09:35:24;;;;;;;13.53;11.40;;;25.50;1.00;;;;;;5020861;28;20181;-82
2021/09/07 09:37:57;;;;;;;15.57;11.00;;;25.40;99.90;;;;;;5021003;28;20536;-84
2021/09/07 09:40:23;;;;;;;15.00;11.97;;;25.40;1.80;;;;;;5020992;28;20210;-82
2021/09/07 09:42:49;;;;;;;17.77;11.40;;;25.40;1.00;;;;;;5019470;28;20272;-83
2021/09/07 09:45:27;;;;;;;14.00;11.00;;;25.30;1.00;;;;;;5017507;28;20193;-83
2021/09/07 09:47:56;;;;;;;13.40;11.50;;;25.40;1.00;;;;;;5018412;28;20174;-83
2021/09/07 09:50:28;;;;;;;16.70;12.33;;;25.50;1.00;;;;;;5019309;28;20179;-83
2021/09/07 09:52:55;;;;;;;15.17;11.17;;;25.50;1.00;;;;;;5017855;28;20598;-82
2021/09/07 09:55:22;;;;;;;15.70;12.20;;;25.40;1.00;;;;;;5017814;28;20203;-82
2021/09/07 09:57:48;;;;;;;14.37;11.77;;;25.40;99.90;;;;;;5018313;28;20198;-82
2021/09/07 10:00:16;;;;;;;16.33;11.60;;;25.40;99.90;;;;;;5019553;28;20196;-83
2021/09/07 10:02:44;;;;;;;16.00;11.77;;;25.60;1.00;;;;;;5021539;28;20257;-81
2021/09/07 10:05:12;;;;;;;12.97;11.53;;;25.80;1.00;;;;;;5018796;28;20245;-81
2021/09/07 10:07:38;;;;;;;15.17;12.13;;;26.10;99.90;;;;;;5018961;28;20646;-82
2021/09/07 10:10:04;;;;;;;13.70;11.37;;;26.40;99.90;;;;;;5018440;28;20173;-82
2021/09/07 10:12:40;;;;;;;16.53;12.03;;;26.70;99.90;;;;;;5020405;28;20184;-81
2021/09/07 10:23:55;;;;;;;13.20;11.10;;;27.30;99.90;;;;;;5020138;28;20642;-81
2021/09/07 10:26:44;;;;;;;12.70;10.97;;;27.40;99.90;;;;;;5018871;28;20165;-80
2021/09/07 10:29:29;;;;;;;13.63;10.67;;;27.40;99.90;;;;;;5019287;28;20660;-82
2021/09/07 10:31:57;;;;;;;13.87;9.50;;;27.60;99.90;;;;;;5018589;28;20190;-81
2021/09/07 10:34:29;;;;;;;11.20;9.17;;;27.40;99.90;;;;;;5017693;28;20649;-81
2021/09/07 10:37:04;;;;;;;13.67;10.57;;;27.00;99.90;;;;;;5018785;28;20162;-82
2021/09/07 10:39:35;;;;;;;12.33;9.67;;;27.00;99.90;;;;;;5018161;28;20204;-82
2021/09/07 10:42:10;;;;;;;14.90;10.13;;;26.80;99.90;;;;;;5017795;28;20171;-81
2021/09/07 10:44:40;;;;;;;14.87;9.97;;;26.80;99.90;;;;;;5017430;28;20228;-82
2021/09/07 10:47:08;;;;;;;11.47;8.97;;;26.70;1.00;;;;;;5017537;28;20623;-83
2021/09/07 10:49:36;;;;;;;11.40;9.10;;;26.50;1.00;;;;;;5019862;28;20241;-80
2021/09/07 10:52:09;;;;;;;11.57;10.13;;;26.40;1.00;;;;;;5027354;28;20179;-81
2021/09/07 10:54:46;;;;;;;13.20;8.80;;;26.40;1.00;;;;;;5032301;28;20180;-82
2021/09/07 11:00:27;;;;;;;15.27;9.70;;;26.30;99.90;;;;;;5019609;28;20658;-80
2021/09/07 11:02:55;;;;;;;13.33;8.63;;;26.60;99.90;;;;;;5018454;28;20167;-83
2021/09/07 11:05:32;;;;;;;15.07;8.40;;;26.90;1.00;;;;;;5017411;28;20175;-82
2021/09/07 11:08:02;;;;;;;12.37;8.43;;;27.10;1.00;;;;;;5017208;28;20166;-80
2021/09/07 11:10:39;;;;;;;13.47;10.37;;;27.20;1.00;;;;;;5017552;28;20185;-81
2021/09/07 11:13:13;;;;;;;13.63;10.53;;;27.00;1.00;;;;;;5034464;28;20151;-83
2021/09/07 11:15:43;;;;;;;13.70;10.90;;;27.10;99.90;;;;;;5032292;28;20599;-81
2021/09/07 11:18:12;;;;;;;13.27;10.10;;;26.90;1.00;;;;;;5020313;28;20205;-81
2021/09/07 11:20:47;;;;;;;13.97;10.37;;;26.80;1.00;;;;;;5017281;28;20257;-82
2021/09/07 11:23:25;;;;;;;11.67;9.40;;;26.70;39.40;;;;;;5018411;28;20249;-80
2021/09/07 11:26:02;;;;;;;13.23;9.13;;;26.50;99.90;;;;;;5018259;28;20177;-81
2021/09/07 11:28:30;;;;;;;16.87;9.13;;;26.50;99.90;;;;;;5018420;28;20655;-80
2021/09/07 11:30:56;;;;;;;13.30;9.20;;;26.50;1.00;;;;;;5017717;28;20173;-81
2021/09/07 11:33:25;;;;;;;14.17;8.70;;;26.40;1.00;;;;;;5017150;28;20166;-82
2021/09/07 11:35:52;;;;;;;11.63;8.97;;;26.30;1.00;;;;;;5017728;28;20166;-80
2021/09/07 11:38:24;;;;;;;11.03;9.00;;;26.30;1.00;;;;;;5016956;28;20162;-80
2021/09/07 11:40:59;;;;;;;11.00;8.77;;;26.40;1.00;;;;;;5016906;28;20198;-80
2021/09/07 11:43:30;;;;;;;13.03;8.80;;;26.40;99.90;;;;;;5017898;28;20162;-81
2021/09/07 11:46:10;;;;;;;10.73;8.80;;;26.50;1.00;;;;;;5017017;28;20513;-82
2021/09/07 11:48:39;;;;;;;12.77;8.57;;;26.40;1.00;;;;;;5017273;28;20169;-80
2021/09/07 11:51:07;;;;;;;12.43;8.87;;;26.60;1.00;;;;;;5016850;28;20189;-80
2021/09/07 11:53:33;;;;;;;11.67;8.50;;;26.90;1.00;;;;;;5017113;28;20159;-81
2021/09/07 11:55:59;;;;;;;15.37;8.23;;;27.20;99.90;;;;;;5017329;28;20189;-80
2021/09/07 11:58:39;;;;;;;11.00;8.57;;;27.40;99.90;;;;;;5018007;28;20550;-81
2021/09/07 12:01:10;;;;;;;13.87;8.60;;;27.30;1.00;;;;;;5018062;28;20206;-80
2021/09/07 12:03:42;;;;;;;9.47;7.17;;;27.40;1.00;;;;;;5015209;28;20181;-80
2021/09/07 12:06:11;;;;;;;11.13;6.83;;;27.40;1.00;;;;;;5016304;28;20186;-81
2021/09/07 12:08:48;;;;;;;10.73;7.13;;;27.20;61.10;;;;;;5016200;28;20170;-81
2021/09/07 12:11:14;;;;;;;10.37;6.77;;;27.30;99.90;;;;;;5016360;28;20167;-81
2021/09/07 12:13:41;;;;;;;11.13;6.23;;;27.70;99.90;;;;;;5016695;28;20178;-81
2021/09/07 12:16:07;;;;;;;8.77;7.10;;;28.00;1.00;;;;;;5016025;28;20155;-80
2021/09/07 12:18:37;;;;;;;9.80;6.63;;;27.90;1.00;;;;;;5015084;28;20361;-80
2021/09/07 12:21:22;;;;;;;9.80;6.63;;;27.60;1.00;;;;;;5017237;28;20351;-81
2021/09/07 12:23:50;;;;;;;10.00;6.70;;;27.40;45.20;;;;;;5015229;28;20174;-80
2021/09/07 12:26:17;;;;;;;10.10;7.37;;;27.30;99.90;;;;;;5016564;28;20173;-81
2021/09/07 12:28:44;;;;;;;10.53;6.63;;;27.30;99.90;;;;;;5017155;28;20176;-82
2021/09/07 12:31:16;;;;;;;8.80;6.13;;;27.20;99.90;;;;;;5016042;28;20170;-82
2021/09/07 12:33:52;;;;;;;10.90;5.43;;;27.20;1.00;;;;;;5016887;28;20158;-82
2021/09/07 12:36:23;;;;;;;7.37;6.30;;;27.20;99.90;;;;;;5016932;28;20231;-82
2021/09/07 12:38:50;;;;;;;9.60;5.60;;;27.30;99.90;;;;;;5016993;28;20176;-81
2021/09/07 12:41:20;;;;;;;11.80;6.20;;;27.60;99.90;;;;;;5016450;28;20696;-80
2021/09/07 12:43:49;;;;;;;9.43;6.17;;;27.70;99.90;;;;;;5016239;28;20197;-81
2021/09/07 12:46:19;;;;;;;8.67;6.23;;;27.70;99.90;;;;;;5014921;28;20181;-82